Time;durP1;ratioP1;P1;durP2;ratioP2;P2;SDS_P1;SDS_P2;PMS_P1;PMS_P2;Temp;Humidity;BMP_temperature;BMP_pressure;BME280_temperature;BME280_humidity;BME280_pressure;Samples;Min_cycle;Max_cycle;Signal;HPM_P1;HPM_P2
2023/04/26 00:04:24;;;;;;;11.80;5.20;;;;;;;7.00;90.13;98428.91;271793;1268;22546;-86
2023/04/26 00:11:19;;;;;;;11.90;5.40;;;;;;;6.98;90.31;98429.58;270687;1260;22575;-86
2023/04/26 00:18:08;;;;;;;13.50;5.20;;;;;;;6.96;90.31;98434.29;269710;1268;23816;-86
2023/04/26 00:24:42;;;;;;;9.40;5.10;;;;;;;6.95;90.12;98440.56;270184;1268;23753;-87
2023/04/26 00:31:04;;;;;;;8.80;5.30;;;;;;;6.94;89.55;98445.60;270377;1266;22419;-87
2023/04/26 00:37:45;;;;;;;14.70;5.30;;;;;;;6.94;88.99;98443.19;272074;1268;22483;-87
2023/04/26 00:44:45;;;;;;;15.10;5.70;;;;;;;6.92;88.67;98443.16;270719;1268;24493;-88
2023/04/26 00:51:56;;;;;;;13.60;4.20;;;;;;;6.86;88.55;98445.02;270048;1268;22584;-87
2023/04/26 01:06:56;;;;;;;8.30;3.80;;;;;;;6.70;87.85;98455.52;273834;1268;22456;-86
2023/04/26 01:13:13;;;;;;;11.80;3.80;;;;;;;6.62;87.45;98460.73;268773;1268;5134257;-87
2023/04/26 01:19:31;;;;;;;8.80;3.40;;;;;;;6.52;86.72;98469.41;273731;1268;23140;-86
2023/04/26 01:26:11;;;;;;;9.80;3.70;;;;;;;6.38;85.88;98479.95;271326;1268;22321;-87
2023/04/26 01:32:56;;;;;;;6.60;3.40;;;;;;;6.30;85.70;98489.96;272286;1268;22215;-87
2023/04/26 01:40:13;;;;;;;15.50;3.60;;;;;;;6.17;85.01;98490.26;269725;1264;22652;-87
2023/04/26 01:48:03;;;;;;;11.70;4.20;;;;;;;6.04;84.73;98495.02;270484;1272;23392;-87
2023/04/26 01:55:21;;;;;;;14.00;4.40;;;;;;;5.91;84.82;98497.92;269438;1270;23004;-87
2023/04/26 02:03:05;;;;;;;11.40;4.00;;;;;;;5.89;85.16;98500.37;269341;1271;22625;-87
2023/04/26 02:17:16;;;;;;;11.90;4.40;;;;;;;5.73;85.19;98517.05;272830;1268;22456;-87
2023/04/26 02:23:47;;;;;;;10.60;4.00;;;;;;;5.68;85.09;98518.42;272256;1268;23466;-87
2023/04/26 02:30:59;;;;;;;15.70;4.40;;;;;;;5.64;85.48;98519.58;271402;1268;25255;-86
2023/04/26 02:38:05;;;;;;;15.20;4.70;;;;;;;5.61;85.63;98521.61;270241;1269;24272;-87
2023/04/26 02:45:21;;;;;;;10.30;4.60;;;;;;;5.50;85.24;98521.03;273149;1270;22446;-86
2023/04/26 02:52:31;;;;;;;17.40;5.20;;;;;;;5.36;84.88;98515.33;272052;1270;22361;-86
2023/04/26 02:58:35;;;;;;;14.80;4.80;;;;;;;5.25;85.00;98516.09;272772;1270;22413;-86
2023/04/26 03:04:37;;;;;;;10.90;4.30;;;;;;;5.14;85.25;98522.48;273461;1267;22471;-88
2023/04/26 03:10:44;;;;;;;16.30;4.70;;;;;;;5.06;85.46;98525.95;272794;1267;23040;-86
2023/04/26 03:24:40;;;;;;;13.60;5.00;;;;;;;4.89;85.73;98533.48;272537;1269;22330;-87
2023/04/26 03:31:00;;;;;;;16.40;4.80;;;;;;;4.81;85.77;98541.49;273526;1268;22198;-87
2023/04/26 03:38:25;;;;;;;15.40;5.50;;;;;;;4.70;85.92;98551.96;272393;1268;23164;-87
2023/04/26 03:44:47;;;;;;;16.60;5.80;;;;;;;4.62;86.34;98558.86;273296;1268;22323;-87
2023/04/26 03:50:50;;;;;;;12.90;5.70;;;;;;;4.52;86.07;98568.91;272876;1268;22525;-87
2023/04/26 03:57:39;;;;;;;18.00;5.70;;;;;;;4.45;86.28;98574.42;272775;1270;22331;-87
2023/04/26 04:12:05;;;;;;;11.40;5.50;;;;;;;4.36;86.69;98591.50;270776;1267;22496;-86
2023/04/26 04:26:17;;;;;;;16.10;6.60;;;;;;;4.30;86.94;98611.71;271618;1268;23837;-87
2023/04/26 04:32:38;;;;;;;9.70;4.80;;;;;;;4.30;87.03;98619.05;272003;1268;23445;-87
2023/04/26 04:38:57;;;;;;;17.00;6.30;;;;;;;4.29;87.04;98627.54;272069;1268;22347;-87
2023/04/26 04:46:06;;;;;;;15.00;5.90;;;;;;;4.33;87.03;98637.17;273018;1267;22429;-88
2023/04/26 04:53:16;;;;;;;13.50;6.50;;;;;;;4.46;86.94;98644.45;273692;1269;22488;-88
2023/04/26 05:07:18;;;;;;;15.20;6.90;;;;;;;5.18;87.60;98642.30;271720;1269;22228;-88
2023/04/26 05:14:15;;;;;;;16.20;7.40;;;;;;;5.57;87.17;98646.17;273049;1269;22511;-88
2023/04/26 05:21:40;;;;;;;17.20;7.10;;;;;;;5.89;86.54;98648.63;270437;1267;24941;-88
2023/04/26 05:29:05;;;;;;;19.80;7.70;;;;;;;6.11;86.11;98655.73;270452;1268;22581;-88
2023/04/26 05:36:29;;;;;;;14.60;6.20;;;;;;;6.29;85.62;98663.23;270460;1268;22614;-88
2023/04/26 05:43:26;;;;;;;13.40;4.60;;;;;;;6.48;84.78;98670.02;269887;1268;22917;-87
2023/04/26 05:49:56;;;;;;;16.80;6.10;;;;;;;6.58;84.13;98671.23;271630;1268;22212;-88
2023/04/26 05:57:09;;;;;;;18.10;5.50;;;;;;;6.76;83.54;98676.28;270722;1273;22570;-88
2023/04/26 06:03:57;;;;;;;15.20;6.00;;;;;;;7.07;83.51;98677.23;271955;1267;24213;-88
2023/04/26 06:11:00;;;;;;;12.70;5.10;;;;;;;7.26;81.88;98674.64;269721;1273;22547;-87
2023/04/26 06:58:09;;;;;;;11.40;3.00;;;;;;;8.26;75.32;98685.24;273419;1268;22339;-88
2023/04/26 07:05:14;;;;;;;12.00;2.70;;;;;;;8.27;75.20;98684.18;272348;1268;23130;-88
2023/04/26 07:12:01;;;;;;;7.10;2.40;;;;;;;8.46;73.75;98684.23;270472;1271;22551;-87
2023/04/26 07:18:59;;;;;;;;;;;;;;;;;;;;;
2023/04/26 07:25:43;;;;;;;10.50;1.90;;;;;;;8.41;73.37;98694.98;270900;1272;22569;-88
2023/04/26 07:33:26;;;;;;;7.30;2.60;;;;;;;8.75;72.61;98695.08;272682;1271;22467;-89
2023/04/26 07:40:30;;;;;;;8.00;2.90;;;;;;;8.79;72.15;98701.62;273051;1264;22362;-88
2023/04/26 07:47:12;;;;;;;8.80;2.40;;;;;;;8.74;71.29;98703.34;273211;1271;22397;-88
2023/04/26 07:53:34;;;;;;;9.70;2.20;;;;;;;9.35;71.29;98705.55;272164;1268;22346;-87
2023/04/26 08:00:02;;;;;;;5.80;2.40;;;;;;;10.01;69.72;98709.14;273712;1272;22335;-88
2023/04/26 08:06:49;;;;;;;8.20;1.80;;;;;;;9.67;69.09;98719.51;273424;1269;22193;-90
2023/04/26 08:13:28;;;;;;;5.70;1.70;;;;;;;9.78;68.01;98717.66;271426;1269;22263;-91
2023/04/26 08:20:04;;;;;;;8.00;1.90;;;;;;;9.91;66.11;98722.23;272949;1269;22574;-88
2023/04/26 08:26:32;;;;;;;7.10;1.70;;;;;;;9.60;65.38;98725.77;272401;1269;23693;-90
2023/04/26 08:33:00;;;;;;;6.50;2.00;;;;;;;9.57;65.78;98723.94;271656;1271;23542;-89
2023/04/26 08:40:02;;;;;;;6.60;1.60;;;;;;;9.93;64.75;98721.57;271709;1276;25528;-89
2023/04/26 08:46:48;;;;;;;4.00;1.40;;;;;;;10.39;63.86;98725.81;272058;1274;22715;-88
2023/04/26 08:53:35;;;;;;;11.00;1.50;;;;;;;10.22;61.97;98720.59;270144;1278;25421;-89
2023/04/26 09:01:02;;;;;;;8.50;1.90;;;;;;;10.15;62.15;98723.90;270169;1275;22653;-88
2023/04/26 09:08:06;;;;;;;2.30;1.10;;;;;;;9.88;62.35;98730.42;271093;1274;22582;-88
2023/04/26 09:14:33;;;;;;;10.90;2.80;;;;;;;9.65;63.42;98745.89;271901;1266;22547;-89
2023/04/26 09:21:37;;;;;;;;;;;;;;;;;;;;;
2023/04/26 09:28:30;;;;;;;5.50;2.40;;;;;;;9.54;65.73;98750.20;273179;1268;22213;-89
2023/04/26 09:34:47;;;;;;;5.40;2.00;;;;;;;10.84;64.97;98745.52;273832;1269;22333;-88
2023/04/26 09:40:49;;;;;;;7.60;2.20;;;;;;;12.52;63.13;98734.55;271793;1270;22554;-89
2023/04/26 09:47:09;;;;;;;5.20;2.10;;;;;;;12.70;61.07;98735.52;272372;1270;22610;-87
2023/04/26 09:54:00;;;;;;;5.30;2.50;;;;;;;11.16;62.44;98737.56;273640;1268;22745;-88
2023/04/26 10:00:56;;;;;;;8.00;2.50;;;;;;;10.43;64.66;98733.49;273818;1268;22358;-87
2023/04/26 10:08:46;;;;;;;7.90;2.20;;;;;;;10.65;64.04;98729.28;272783;1270;22362;-88
2023/04/26 10:15:48;;;;;;;8.50;2.30;;;;;;;10.57;61.94;98732.02;270599;1267;22329;-89
2023/04/26 15:46:51;;;;;;;4.10;1.90;;;;;;;9.42;47.54;98855.70;272704;1267;22477;-86
2023/04/26 15:52:52;;;;;;;7.00;2.00;;;;;;;9.19;47.42;98866.39;271607;1268;23800;-88
2023/04/26 15:58:56;;;;;;;6.80;2.00;;;;;;;9.18;48.29;98875.27;272975;1267;22472;-87
2023/04/26 16:04:58;;;;;;;5.10;1.70;;;;;;;9.24;48.33;98878.61;273156;1268;22966;-88
2023/04/26 16:11:33;;;;;;;9.10;2.20;;;;;;;9.22;48.91;98881.79;272484;1260;22563;-86
2023/04/26 16:17:34;;;;;;;3.70;1.70;;;;;;;9.39;49.46;98889.30;273437;1268;22464;-87
2023/04/26 16:23:51;;;;;;;4.40;1.30;;;;;;;9.48;48.94;98885.13;273647;1267;22345;-87
2023/04/26 16:29:53;;;;;;;4.00;1.00;;;;;;;9.34;48.99;98887.20;272979;1267;22778;-86
2023/04/26 16:35:55;;;;;;;6.00;1.60;;;;;;;9.06;49.23;98891.30;270468;1267;23288;-87
2023/04/26 16:42:04;;;;;;;3.40;1.30;;;;;;;8.85;49.73;98891.29;270851;1268;22566;-86
